Aviation Digital Data Service (ADDS)

Output produced by METARs form (1816 UTC 24 June 2019)
found at http://www.aviationweather.gov/metar/data/
 
METAR text: WBKK 241800Z 11006KT 9999 FEW014 SCT140 BKN270 27/24 Q1010 NOSIG
Conditions at: WBKK (KOTA KINABALU IN, MY) observed 1800 UTC 24 June 2019
Temperature: 27.0°C (81°F)
Dewpoint: 24.0°C (75°F) [RH = 84%]
Pressure (altimeter): 29.82 inches Hg (1010.0 mb)
Winds: from the ESE (110 degrees) at 7 MPH (6 knots; 3.1 m/s)
Visibility: 6 or more miles (10+ km)
Ceiling: 27000 feet AGL
Clouds: few clouds at 1400 feet AGL
scattered clouds at 14000 feet AGL
broken clouds at 27000 feet AGL
Weather: no significant weather observed at this time

METAR text: WBKK 241730Z 11006KT 9999 FEW014 SCT140 BKN270 27/24 Q1010 NOSIG
Conditions at: WBKK (KOTA KINABALU IN, MY) observed 1730 UTC 24 June 2019
Temperature: 27.0°C (81°F)
Dewpoint: 24.0°C (75°F) [RH = 84%]
Pressure (altimeter): 29.82 inches Hg (1010.0 mb)
Winds: from the ESE (110 degrees) at 7 MPH (6 knots; 3.1 m/s)
Visibility: 6 or more miles (10+ km)
Ceiling: 27000 feet AGL
Clouds: few clouds at 1400 feet AGL
scattered clouds at 14000 feet AGL
broken clouds at 27000 feet AGL
Weather: no significant weather observed at this time

METAR text: WBKK 241700Z 11004KT 080V140 9999 FEW014 SCT140 BKN270 27/24 Q1010 NOSIG
Conditions at: WBKK (KOTA KINABALU IN, MY) observed 1700 UTC 24 June 2019
Temperature: 27.0°C (81°F)
Dewpoint: 24.0°C (75°F) [RH = 84%]
Pressure (altimeter): 29.82 inches Hg (1010.0 mb)
Winds: from the ESE (110 degrees) at 5 MPH (4 knots; 2.1 m/s)
Visibility: 6 or more miles (10+ km)
Ceiling: 27000 feet AGL
Clouds: few clouds at 1400 feet AGL
scattered clouds at 14000 feet AGL
broken clouds at 27000 feet AGL
Weather: no significant weather observed at this time

METAR text: WBKK 241630Z 10005KT 9999 FEW014 SCT140 BKN270 27/24 Q1010 NOSIG
Conditions at: WBKK (KOTA KINABALU IN, MY) observed 1630 UTC 24 June 2019
Temperature: 27.0°C (81°F)
Dewpoint: 24.0°C (75°F) [RH = 84%]
Pressure (altimeter): 29.82 inches Hg (1010.0 mb)
Winds: from the E (100 degrees) at 6 MPH (5 knots; 2.6 m/s)
Visibility: 6 or more miles (10+ km)
Ceiling: 27000 feet AGL
Clouds: few clouds at 1400 feet AGL
scattered clouds at 14000 feet AGL
broken clouds at 27000 feet AGL
Weather: no significant weather observed at this time

METAR text: WBKK 241600Z 10004KT 9999 FEW014 SCT140 BKN270 27/24 Q1011 NOSIG
Conditions at: WBKK (KOTA KINABALU IN, MY) observed 1600 UTC 24 June 2019
Temperature: 27.0°C (81°F)
Dewpoint: 24.0°C (75°F) [RH = 84%]
Pressure (altimeter): 29.85 inches Hg (1011.0 mb)
Winds: from the E (100 degrees) at 5 MPH (4 knots; 2.1 m/s)
Visibility: 6 or more miles (10+ km)
Ceiling: 27000 feet AGL
Clouds: few clouds at 1400 feet AGL
scattered clouds at 14000 feet AGL
broken clouds at 27000 feet AGL
Weather: no significant weather observed at this time

METAR text: WBKK 241530Z 11003KT 090V150 9999 FEW014 SCT140 BKN270 28/25 Q1011 NOSIG
Conditions at: WBKK (KOTA KINABALU IN, MY) observed 1530 UTC 24 June 2019
Temperature: 28.0°C (82°F)
Dewpoint: 25.0°C (77°F) [RH = 84%]
Pressure (altimeter): 29.85 inches Hg (1011.0 mb)
Winds: from the ESE (110 degrees) at 3 MPH (3 knots; 1.5 m/s)
Visibility: 6 or more miles (10+ km)
Ceiling: 27000 feet AGL
Clouds: few clouds at 1400 feet AGL
scattered clouds at 14000 feet AGL
broken clouds at 27000 feet AGL
Weather: no significant weather observed at this time

METAR text: WBKK 241500Z VRB02KT 9999 FEW014 SCT140 BKN270 28/25 Q1011 NOSIG
Conditions at: WBKK (KOTA KINABALU IN, MY) observed 1500 UTC 24 June 2019
Temperature: 28.0°C (82°F)
Dewpoint: 25.0°C (77°F) [RH = 84%]
Pressure (altimeter): 29.85 inches Hg (1011.0 mb)
Winds: variable direction winds at 2 MPH (2 knots; 1.0 m/s)
Visibility: 6 or more miles (10+ km)
Ceiling: 27000 feet AGL
Clouds: few clouds at 1400 feet AGL
scattered clouds at 14000 feet AGL
broken clouds at 27000 feet AGL
Weather: no significant weather observed at this time

METAR text: WBKK 241430Z 00000KT 9999 FEW014 SCT140 BKN270 28/25 Q1011 NOSIG
Conditions at: WBKK (KOTA KINABALU IN, MY) observed 1430 UTC 24 June 2019
Temperature: 28.0°C (82°F)
Dewpoint: 25.0°C (77°F) [RH = 84%]
Pressure (altimeter): 29.85 inches Hg (1011.0 mb)
Winds: calm
Visibility: 6 or more miles (10+ km)
Ceiling: 27000 feet AGL
Clouds: few clouds at 1400 feet AGL
scattered clouds at 14000 feet AGL
broken clouds at 27000 feet AGL
Weather: no significant weather observed at this time

METAR text: WBKK 241400Z 00000KT 9999 FEW014 SCT140 BKN270 28/25 Q1011 NOSIG
Conditions at: WBKK (KOTA KINABALU IN, MY) observed 1400 UTC 24 June 2019
Temperature: 28.0°C (82°F)
Dewpoint: 25.0°C (77°F) [RH = 84%]
Pressure (altimeter): 29.85 inches Hg (1011.0 mb)
Winds: calm
Visibility: 6 or more miles (10+ km)
Ceiling: 27000 feet AGL
Clouds: few clouds at 1400 feet AGL
scattered clouds at 14000 feet AGL
broken clouds at 27000 feet AGL
Weather: no significant weather observed at this time

METAR text: WBKK 241330Z 11004KT 9999 FEW014 SCT140 BKN270 29/25 Q1010 NOSIG
Conditions at: WBKK (KOTA KINABALU IN, MY) observed 1330 UTC 24 June 2019
Temperature: 29.0°C (84°F)
Dewpoint: 25.0°C (77°F) [RH = 79%]
Pressure (altimeter): 29.82 inches Hg (1010.0 mb)
Winds: from the ESE (110 degrees) at 5 MPH (4 knots; 2.1 m/s)
Visibility: 6 or more miles (10+ km)
Ceiling: 27000 feet AGL
Clouds: few clouds at 1400 feet AGL
scattered clouds at 14000 feet AGL
broken clouds at 27000 feet AGL
Weather: no significant weather observed at this time

METAR text: WBKK 241300Z 10006KT 070V140 9999 FEW014 SCT140 BKN270 29/26 Q1010 NOSIG
Conditions at: WBKK (KOTA KINABALU IN, MY) observed 1300 UTC 24 June 2019
Temperature: 29.0°C (84°F)
Dewpoint: 26.0°C (79°F) [RH = 84%]
Pressure (altimeter): 29.82 inches Hg (1010.0 mb)
Winds: from the E (100 degrees) at 7 MPH (6 knots; 3.1 m/s)
Visibility: 6 or more miles (10+ km)
Ceiling: 27000 feet AGL
Clouds: few clouds at 1400 feet AGL
scattered clouds at 14000 feet AGL
broken clouds at 27000 feet AGL
Weather: no significant weather observed at this time

METAR text: WBKK 241230Z 10007KT 9999 FEW014 SCT140 BKN270 29/26 Q1010 NOSIG
Conditions at: WBKK (KOTA KINABALU IN, MY) observed 1230 UTC 24 June 2019
Temperature: 29.0°C (84°F)
Dewpoint: 26.0°C (79°F) [RH = 84%]
Pressure (altimeter): 29.82 inches Hg (1010.0 mb)
Winds: from the E (100 degrees) at 8 MPH (7 knots; 3.6 m/s)
Visibility: 6 or more miles (10+ km)
Ceiling: 27000 feet AGL
Clouds: few clouds at 1400 feet AGL
scattered clouds at 14000 feet AGL
broken clouds at 27000 feet AGL
Weather: no significant weather observed at this time

METAR text: WBKK 241200Z 09003KT 080V140 9999 FEW014 SCT140 BKN270 29/26 Q1010 NOSIG
Conditions at: WBKK (KOTA KINABALU IN, MY) observed 1200 UTC 24 June 2019
Temperature: 29.0°C (84°F)
Dewpoint: 26.0°C (79°F) [RH = 84%]
Pressure (altimeter): 29.82 inches Hg (1010.0 mb)
Winds: from the E (90 degrees) at 3 MPH (3 knots; 1.5 m/s)
Visibility: 6 or more miles (10+ km)
Ceiling: 27000 feet AGL
Clouds: few clouds at 1400 feet AGL
scattered clouds at 14000 feet AGL
broken clouds at 27000 feet AGL
Weather: no significant weather observed at this time

METAR text: WBKK 241130Z VRB01KT 9999 FEW014 SCT140 BKN270 29/26 Q1010 NOSIG
Conditions at: WBKK (KOTA KINABALU IN, MY) observed 1130 UTC 24 June 2019
Temperature: 29.0°C (84°F)
Dewpoint: 26.0°C (79°F) [RH = 84%]
Pressure (altimeter): 29.82 inches Hg (1010.0 mb)
Winds: variable direction winds at 1 MPH (1 knots; 0.5 m/s)
Visibility: 6 or more miles (10+ km)
Ceiling: 27000 feet AGL
Clouds: few clouds at 1400 feet AGL
scattered clouds at 14000 feet AGL
broken clouds at 27000 feet AGL
Weather: no significant weather observed at this time

METAR text: WBKK 241100Z 00000KT 9999 FEW014 SCT140 BKN270 29/25 Q1010 NOSIG
Conditions at: WBKK (KOTA KINABALU IN, MY) observed 1100 UTC 24 June 2019
Temperature: 29.0°C (84°F)
Dewpoint: 25.0°C (77°F) [RH = 79%]
Pressure (altimeter): 29.82 inches Hg (1010.0 mb)
Winds: calm
Visibility: 6 or more miles (10+ km)
Ceiling: 27000 feet AGL
Clouds: few clouds at 1400 feet AGL
scattered clouds at 14000 feet AGL
broken clouds at 27000 feet AGL
Weather: no significant weather observed at this time

METAR text: WBKK 241030Z VRB02KT 9999 FEW014 SCT140 BKN270 30/26 Q1009 NOSIG
Conditions at: WBKK (KOTA KINABALU IN, MY) observed 1030 UTC 24 June 2019
Temperature: 30.0°C (86°F)
Dewpoint: 26.0°C (79°F) [RH = 79%]
Pressure (altimeter): 29.79 inches Hg (1009.0 mb)
Winds: variable direction winds at 2 MPH (2 knots; 1.0 m/s)
Visibility: 6 or more miles (10+ km)
Ceiling: 27000 feet AGL
Clouds: few clouds at 1400 feet AGL
scattered clouds at 14000 feet AGL
broken clouds at 27000 feet AGL
Weather: no significant weather observed at this time

METAR text: WBKK 241000Z VRB03KT 9999 FEW014 SCT140 BKN270 31/26 Q1009 NOSIG
Conditions at: WBKK (KOTA KINABALU IN, MY) observed 1000 UTC 24 June 2019
Temperature: 31.0°C (88°F)
Dewpoint: 26.0°C (79°F) [RH = 75%]
Pressure (altimeter): 29.79 inches Hg (1009.0 mb)
Winds: variable direction winds at 3 MPH (3 knots; 1.5 m/s)
Visibility: 6 or more miles (10+ km)
Ceiling: 27000 feet AGL
Clouds: few clouds at 1400 feet AGL
scattered clouds at 14000 feet AGL
broken clouds at 27000 feet AGL
Weather: no significant weather observed at this time

METAR text: WBKK 240930Z 28003KT 240V340 9999 FEW014 SCT140 BKN270 31/26 Q1009 NOSIG
Conditions at: WBKK (KOTA KINABALU IN, MY) observed 0930 UTC 24 June 2019
Temperature: 31.0°C (88°F)
Dewpoint: 26.0°C (79°F) [RH = 75%]
Pressure (altimeter): 29.79 inches Hg (1009.0 mb)
Winds: from the W (280 degrees) at 3 MPH (3 knots; 1.5 m/s)
Visibility: 6 or more miles (10+ km)
Ceiling: 27000 feet AGL
Clouds: few clouds at 1400 feet AGL
scattered clouds at 14000 feet AGL
broken clouds at 27000 feet AGL
Weather: no significant weather observed at this time

METAR text: WBKK 240900Z VRB02KT 9999 FEW014 SCT140 BKN270 31/26 Q1008 NOSIG
Conditions at: WBKK (KOTA KINABALU IN, MY) observed 0900 UTC 24 June 2019
Temperature: 31.0°C (88°F)
Dewpoint: 26.0°C (79°F) [RH = 75%]
Pressure (altimeter): 29.76 inches Hg (1008.0 mb)
Winds: variable direction winds at 2 MPH (2 knots; 1.0 m/s)
Visibility: 6 or more miles (10+ km)
Ceiling: 27000 feet AGL
Clouds: few clouds at 1400 feet AGL
scattered clouds at 14000 feet AGL
broken clouds at 27000 feet AGL
Weather: no significant weather observed at this time

METAR text: WBKK 240830Z 30003KT 250V010 9999 FEW014 SCT140 BKN270 32/26 Q1008 NOSIG
Conditions at: WBKK (KOTA KINABALU IN, MY) observed 0830 UTC 24 June 2019
Temperature: 32.0°C (90°F)
Dewpoint: 26.0°C (79°F) [RH = 71%]
Pressure (altimeter): 29.76 inches Hg (1008.0 mb)
Winds: from the WNW (300 degrees) at 3 MPH (3 knots; 1.5 m/s)
Visibility: 6 or more miles (10+ km)
Ceiling: 27000 feet AGL
Clouds: few clouds at 1400 feet AGL
scattered clouds at 14000 feet AGL
broken clouds at 27000 feet AGL
Weather: no significant weather observed at this time

METAR text: WBKK 240800Z 26004KT 220V290 9999 FEW014 SCT140 BKN270 32/26 Q1008 NOSIG
Conditions at: WBKK (KOTA KINABALU IN, MY) observed 0800 UTC 24 June 2019
Temperature: 32.0°C (90°F)
Dewpoint: 26.0°C (79°F) [RH = 71%]
Pressure (altimeter): 29.76 inches Hg (1008.0 mb)
Winds: from the W (260 degrees) at 5 MPH (4 knots; 2.1 m/s)
Visibility: 6 or more miles (10+ km)
Ceiling: 27000 feet AGL
Clouds: few clouds at 1400 feet AGL
scattered clouds at 14000 feet AGL
broken clouds at 27000 feet AGL
Weather: no significant weather observed at this time

METAR text: WBKK 240730Z 26003KT 220V320 9999 FEW014 SCT140 BKN270 32/26 Q1008 NOSIG
Conditions at: WBKK (KOTA KINABALU IN, MY) observed 0730 UTC 24 June 2019
Temperature: 32.0°C (90°F)
Dewpoint: 26.0°C (79°F) [RH = 71%]
Pressure (altimeter): 29.76 inches Hg (1008.0 mb)
Winds: from the W (260 degrees) at 3 MPH (3 knots; 1.5 m/s)
Visibility: 6 or more miles (10+ km)
Ceiling: 27000 feet AGL
Clouds: few clouds at 1400 feet AGL
scattered clouds at 14000 feet AGL
broken clouds at 27000 feet AGL
Weather: no significant weather observed at this time

METAR text: WBKK 240700Z 28006KT 230V310 9999 FEW014 SCT140 BKN270 32/26 Q1008 NOSIG
Conditions at: WBKK (KOTA KINABALU IN, MY) observed 0700 UTC 24 June 2019
Temperature: 32.0°C (90°F)
Dewpoint: 26.0°C (79°F) [RH = 71%]
Pressure (altimeter): 29.76 inches Hg (1008.0 mb)
Winds: from the W (280 degrees) at 7 MPH (6 knots; 3.1 m/s)
Visibility: 6 or more miles (10+ km)
Ceiling: 27000 feet AGL
Clouds: few clouds at 1400 feet AGL
scattered clouds at 14000 feet AGL
broken clouds at 27000 feet AGL
Weather: no significant weather observed at this time

METAR text: WBKK 240630Z 27007KT 9999 FEW014 SCT140 BKN270 32/26 Q1008 NOSIG
Conditions at: WBKK (KOTA KINABALU IN, MY) observed 0630 UTC 24 June 2019
Temperature: 32.0°C (90°F)
Dewpoint: 26.0°C (79°F) [RH = 71%]
Pressure (altimeter): 29.76 inches Hg (1008.0 mb)
Winds: from the W (270 degrees) at 8 MPH (7 knots; 3.6 m/s)
Visibility: 6 or more miles (10+ km)
Ceiling: 27000 feet AGL
Clouds: few clouds at 1400 feet AGL
scattered clouds at 14000 feet AGL
broken clouds at 27000 feet AGL
Weather: no significant weather observed at this time

METAR text: WBKK 240600Z 27007KT 240V300 9999 FEW014 SCT140 BKN270 32/26 Q1008 NOSIG
Conditions at: WBKK (KOTA KINABALU IN, MY) observed 0600 UTC 24 June 2019
Temperature: 32.0°C (90°F)
Dewpoint: 26.0°C (79°F) [RH = 71%]
Pressure (altimeter): 29.76 inches Hg (1008.0 mb)
Winds: from the W (270 degrees) at 8 MPH (7 knots; 3.6 m/s)
Visibility: 6 or more miles (10+ km)
Ceiling: 27000 feet AGL
Clouds: few clouds at 1400 feet AGL
scattered clouds at 14000 feet AGL
broken clouds at 27000 feet AGL
Weather: no significant weather observed at this time

METAR text: WBKK 240530Z 26006KT 220V300 9999 FEW014 SCT140 OVC270 32/26 Q1009 NOSIG
Conditions at: WBKK (KOTA KINABALU IN, MY) observed 0530 UTC 24 June 2019
Temperature: 32.0°C (90°F)
Dewpoint: 26.0°C (79°F) [RH = 71%]
Pressure (altimeter): 29.79 inches Hg (1009.0 mb)
Winds: from the W (260 degrees) at 7 MPH (6 knots; 3.1 m/s)
Visibility: 6 or more miles (10+ km)
Ceiling: 27000 feet AGL
Clouds: few clouds at 1400 feet AGL
scattered clouds at 14000 feet AGL
overcast cloud deck at 27000 feet AGL
Weather: no significant weather observed at this time

METAR text: WBKK 240500Z 27005KT 210V300 9999 FEW014 SCT140 OVC270 32/25 Q1009 NOSIG
Conditions at: WBKK (KOTA KINABALU IN, MY) observed 0500 UTC 24 June 2019
Temperature: 32.0°C (90°F)
Dewpoint: 25.0°C (77°F) [RH = 67%]
Pressure (altimeter): 29.79 inches Hg (1009.0 mb)
Winds: from the W (270 degrees) at 6 MPH (5 knots; 2.6 m/s)
Visibility: 6 or more miles (10+ km)
Ceiling: 27000 feet AGL
Clouds: few clouds at 1400 feet AGL
scattered clouds at 14000 feet AGL
overcast cloud deck at 27000 feet AGL
Weather: no significant weather observed at this time

METAR text: WBKK 240430Z 27005KT 240V300 9999 FEW014 SCT140 OVC270 32/26 Q1009 NOSIG
Conditions at: WBKK (KOTA KINABALU IN, MY) observed 0430 UTC 24 June 2019
Temperature: 32.0°C (90°F)
Dewpoint: 26.0°C (79°F) [RH = 71%]
Pressure (altimeter): 29.79 inches Hg (1009.0 mb)
Winds: from the W (270 degrees) at 6 MPH (5 knots; 2.6 m/s)
Visibility: 6 or more miles (10+ km)
Ceiling: 27000 feet AGL
Clouds: few clouds at 1400 feet AGL
scattered clouds at 14000 feet AGL
overcast cloud deck at 27000 feet AGL
Weather: no significant weather observed at this time

METAR text: WBKK 240400Z VRB01KT 9999 FEW014 SCT140 OVC270 32/25 Q1010 NOSIG
Conditions at: WBKK (KOTA KINABALU IN, MY) observed 0400 UTC 24 June 2019
Temperature: 32.0°C (90°F)
Dewpoint: 25.0°C (77°F) [RH = 67%]
Pressure (altimeter): 29.82 inches Hg (1010.0 mb)
Winds: variable direction winds at 1 MPH (1 knots; 0.5 m/s)
Visibility: 6 or more miles (10+ km)
Ceiling: 27000 feet AGL
Clouds: few clouds at 1400 feet AGL
scattered clouds at 14000 feet AGL
overcast cloud deck at 27000 feet AGL
Weather: no significant weather observed at this time

METAR text: WBKK 240330Z 13004KT 080V160 9999 FEW014 SCT140 OVC270 31/25 Q1010 NOSIG
Conditions at: WBKK (KOTA KINABALU IN, MY) observed 0330 UTC 24 June 2019
Temperature: 31.0°C (88°F)
Dewpoint: 25.0°C (77°F) [RH = 71%]
Pressure (altimeter): 29.82 inches Hg (1010.0 mb)
Winds: from the SE (130 degrees) at 5 MPH (4 knots; 2.1 m/s)
Visibility: 6 or more miles (10+ km)
Ceiling: 27000 feet AGL
Clouds: few clouds at 1400 feet AGL
scattered clouds at 14000 feet AGL
overcast cloud deck at 27000 feet AGL
Weather: no significant weather observed at this time

METAR text: WBKK 240300Z 12004KT 090V160 9999 FEW014 SCT140 OVC270 30/25 Q1010 NOSIG
Conditions at: WBKK (KOTA KINABALU IN, MY) observed 0300 UTC 24 June 2019
Temperature: 30.0°C (86°F)
Dewpoint: 25.0°C (77°F) [RH = 75%]
Pressure (altimeter): 29.82 inches Hg (1010.0 mb)
Winds: from the ESE (120 degrees) at 5 MPH (4 knots; 2.1 m/s)
Visibility: 6 or more miles (10+ km)
Ceiling: 27000 feet AGL
Clouds: few clouds at 1400 feet AGL
scattered clouds at 14000 feet AGL
overcast cloud deck at 27000 feet AGL
Weather: no significant weather observed at this time

METAR text: WBKK 240230Z 11004KT 9999 FEW014 SCT140 BKN270 29/25 Q1010 NOSIG
Conditions at: WBKK (KOTA KINABALU IN, MY) observed 0230 UTC 24 June 2019
Temperature: 29.0°C (84°F)
Dewpoint: 25.0°C (77°F) [RH = 79%]
Pressure (altimeter): 29.82 inches Hg (1010.0 mb)
Winds: from the ESE (110 degrees) at 5 MPH (4 knots; 2.1 m/s)
Visibility: 6 or more miles (10+ km)
Ceiling: 27000 feet AGL
Clouds: few clouds at 1400 feet AGL
scattered clouds at 14000 feet AGL
broken clouds at 27000 feet AGL
Weather: no significant weather observed at this time

METAR text: WBKK 240200Z 12003KT 080V160 9999 FEW014 SCT140 BKN270 29/24 Q1011 NOSIG
Conditions at: WBKK (KOTA KINABALU IN, MY) observed 0200 UTC 24 June 2019
Temperature: 29.0°C (84°F)
Dewpoint: 24.0°C (75°F) [RH = 74%]
Pressure (altimeter): 29.85 inches Hg (1011.0 mb)
Winds: from the ESE (120 degrees) at 3 MPH (3 knots; 1.5 m/s)
Visibility: 6 or more miles (10+ km)
Ceiling: 27000 feet AGL
Clouds: few clouds at 1400 feet AGL
scattered clouds at 14000 feet AGL
broken clouds at 27000 feet AGL
Weather: no significant weather observed at this time

METAR text: WBKK 240130Z 11006KT 070V140 9999 FEW014 SCT140 BKN260 28/24 Q1011 NOSIG
Conditions at: WBKK (KOTA KINABALU IN, MY) observed 0130 UTC 24 June 2019
Temperature: 28.0°C (82°F)
Dewpoint: 24.0°C (75°F) [RH = 79%]
Pressure (altimeter): 29.85 inches Hg (1011.0 mb)
Winds: from the ESE (110 degrees) at 7 MPH (6 knots; 3.1 m/s)
Visibility: 6 or more miles (10+ km)
Ceiling: 26000 feet AGL
Clouds: few clouds at 1400 feet AGL
scattered clouds at 14000 feet AGL
broken clouds at 26000 feet AGL
Weather: no significant weather observed at this time

METAR text: WBKK 240100Z 11006KT 9999 FEW014 SCT140 BKN260 27/23 Q1011 NOSIG
Conditions at: WBKK (KOTA KINABALU IN, MY) observed 0100 UTC 24 June 2019
Temperature: 27.0°C (81°F)
Dewpoint: 23.0°C (73°F) [RH = 79%]
Pressure (altimeter): 29.85 inches Hg (1011.0 mb)
Winds: from the ESE (110 degrees) at 7 MPH (6 knots; 3.1 m/s)
Visibility: 6 or more miles (10+ km)
Ceiling: 26000 feet AGL
Clouds: few clouds at 1400 feet AGL
scattered clouds at 14000 feet AGL
broken clouds at 26000 feet AGL
Weather: no significant weather observed at this time

METAR text: WBKK 240030Z 11003KT 080V140 9999 FEW014 SCT140 BKN260 27/24 Q1011 NOSIG
Conditions at: WBKK (KOTA KINABALU IN, MY) observed 0030 UTC 24 June 2019
Temperature: 27.0°C (81°F)
Dewpoint: 24.0°C (75°F) [RH = 84%]
Pressure (altimeter): 29.85 inches Hg (1011.0 mb)
Winds: from the ESE (110 degrees) at 3 MPH (3 knots; 1.5 m/s)
Visibility: 6 or more miles (10+ km)
Ceiling: 26000 feet AGL
Clouds: few clouds at 1400 feet AGL
scattered clouds at 14000 feet AGL
broken clouds at 26000 feet AGL
Weather: no significant weather observed at this time

METAR text: WBKK 240000Z VRB03KT 9999 FEW014 SCT140 BKN260 26/24 Q1011 NOSIG
Conditions at: WBKK (KOTA KINABALU IN, MY) observed 0000 UTC 24 June 2019
Temperature: 26.0°C (79°F)
Dewpoint: 24.0°C (75°F) [RH = 89%]
Pressure (altimeter): 29.85 inches Hg (1011.0 mb)
Winds: variable direction winds at 3 MPH (3 knots; 1.5 m/s)
Visibility: 6 or more miles (10+ km)
Ceiling: 26000 feet AGL
Clouds: few clouds at 1400 feet AGL
scattered clouds at 14000 feet AGL
broken clouds at 26000 feet AGL
Weather: no significant weather observed at this time

METAR text: WBKK 232330Z 10005KT 9999 FEW014 SCT140 BKN270 26/24 Q1011 NOSIG
Conditions at: WBKK (KOTA KINABALU IN, MY) observed 2330 UTC 23 June 2019
Temperature: 26.0°C (79°F)
Dewpoint: 24.0°C (75°F) [RH = 89%]
Pressure (altimeter): 29.85 inches Hg (1011.0 mb)
Winds: from the E (100 degrees) at 6 MPH (5 knots; 2.6 m/s)
Visibility: 6 or more miles (10+ km)
Ceiling: 27000 feet AGL
Clouds: few clouds at 1400 feet AGL
scattered clouds at 14000 feet AGL
broken clouds at 27000 feet AGL
Weather: no significant weather observed at this time

METAR text: WBKK 232300Z 11006KT 9999 FEW014 SCT140 BKN270 26/24 Q1010 NOSIG
Conditions at: WBKK (KOTA KINABALU IN, MY) observed 2300 UTC 23 June 2019
Temperature: 26.0°C (79°F)
Dewpoint: 24.0°C (75°F) [RH = 89%]
Pressure (altimeter): 29.82 inches Hg (1010.0 mb)
Winds: from the ESE (110 degrees) at 7 MPH (6 knots; 3.1 m/s)
Visibility: 6 or more miles (10+ km)
Ceiling: 27000 feet AGL
Clouds: few clouds at 1400 feet AGL
scattered clouds at 14000 feet AGL
broken clouds at 27000 feet AGL
Weather: no significant weather observed at this time

METAR text: WBKK 232230Z 09006KT 070V130 9999 FEW014 SCT140 BKN270 25/24 Q1010 NOSIG
Conditions at: WBKK (KOTA KINABALU IN, MY) observed 2230 UTC 23 June 2019
Temperature: 25.0°C (77°F)
Dewpoint: 24.0°C (75°F) [RH = 94%]
Pressure (altimeter): 29.82 inches Hg (1010.0 mb)
Winds: from the E (90 degrees) at 7 MPH (6 knots; 3.1 m/s)
Visibility: 6 or more miles (10+ km)
Ceiling: 27000 feet AGL
Clouds: few clouds at 1400 feet AGL
scattered clouds at 14000 feet AGL
broken clouds at 27000 feet AGL
Weather: no significant weather observed at this time

METAR text: WBKK 232200Z VRB02KT 9999 FEW014 FEW016CB SCT140 BKN270 25/24 Q1010 NOSIG
Conditions at: WBKK (KOTA KINABALU IN, MY) observed 2200 UTC 23 June 2019
Temperature: 25.0°C (77°F)
Dewpoint: 24.0°C (75°F) [RH = 94%]
Pressure (altimeter): 29.82 inches Hg (1010.0 mb)
Winds: variable direction winds at 2 MPH (2 knots; 1.0 m/s)
Visibility: 6 or more miles (10+ km)
Ceiling: 27000 feet AGL
Clouds: few clouds at 1400 feet AGL
few clouds at 1600 feet AGL
scattered clouds at 14000 feet AGL
broken clouds at 27000 feet AGL
Weather: no significant weather observed at this time

METAR text: WBKK 232130Z 04003KT 9999 FEW014 FEW016CB SCT140 BKN270 25/24 Q1009 NOSIG
Conditions at: WBKK (KOTA KINABALU IN, MY) observed 2130 UTC 23 June 2019
Temperature: 25.0°C (77°F)
Dewpoint: 24.0°C (75°F) [RH = 94%]
Pressure (altimeter): 29.79 inches Hg (1009.0 mb)
Winds: from the NE (40 degrees) at 3 MPH (3 knots; 1.5 m/s)
Visibility: 6 or more miles (10+ km)
Ceiling: 27000 feet AGL
Clouds: few clouds at 1400 feet AGL
few clouds at 1600 feet AGL
scattered clouds at 14000 feet AGL
broken clouds at 27000 feet AGL
Weather: no significant weather observed at this time

METAR text: WBKK 232100Z 00000KT 9999 FEW014 FEW016CB SCT140 BKN270 25/23 Q1009 NOSIG
Conditions at: WBKK (KOTA KINABALU IN, MY) observed 2100 UTC 23 June 2019
Temperature: 25.0°C (77°F)
Dewpoint: 23.0°C (73°F) [RH = 89%]
Pressure (altimeter): 29.79 inches Hg (1009.0 mb)
Winds: calm
Visibility: 6 or more miles (10+ km)
Ceiling: 27000 feet AGL
Clouds: few clouds at 1400 feet AGL
few clouds at 1600 feet AGL
scattered clouds at 14000 feet AGL
broken clouds at 27000 feet AGL
Weather: no significant weather observed at this time

METAR text: WBKK 232030Z VRB02KT 9999 FEW014 FEW016CB SCT140 BKN270 25/23 Q1009 NOSIG
Conditions at: WBKK (KOTA KINABALU IN, MY) observed 2030 UTC 23 June 2019
Temperature: 25.0°C (77°F)
Dewpoint: 23.0°C (73°F) [RH = 89%]
Pressure (altimeter): 29.79 inches Hg (1009.0 mb)
Winds: variable direction winds at 2 MPH (2 knots; 1.0 m/s)
Visibility: 6 or more miles (10+ km)
Ceiling: 27000 feet AGL
Clouds: few clouds at 1400 feet AGL
few clouds at 1600 feet AGL
scattered clouds at 14000 feet AGL
broken clouds at 27000 feet AGL
Weather: no significant weather observed at this time

METAR text: WBKK 232000Z 10003KT 9999 FEW014 FEW016CB SCT140 BKN270 26/24 Q1009 NOSIG
Conditions at: WBKK (KOTA KINABALU IN, MY) observed 2000 UTC 23 June 2019
Temperature: 26.0°C (79°F)
Dewpoint: 24.0°C (75°F) [RH = 89%]
Pressure (altimeter): 29.79 inches Hg (1009.0 mb)
Winds: from the E (100 degrees) at 3 MPH (3 knots; 1.5 m/s)
Visibility: 6 or more miles (10+ km)
Ceiling: 27000 feet AGL
Clouds: few clouds at 1400 feet AGL
few clouds at 1600 feet AGL
scattered clouds at 14000 feet AGL
broken clouds at 27000 feet AGL
Weather: no significant weather observed at this time

METAR text: WBKK 231930Z 11003KT 060V120 9999 FEW014 FEW016CB SCT140 BKN270 26/24 Q1009 NOSIG
Conditions at: WBKK (KOTA KINABALU IN, MY) observed 1930 UTC 23 June 2019
Temperature: 26.0°C (79°F)
Dewpoint: 24.0°C (75°F) [RH = 89%]
Pressure (altimeter): 29.79 inches Hg (1009.0 mb)
Winds: from the ESE (110 degrees) at 3 MPH (3 knots; 1.5 m/s)
Visibility: 6 or more miles (10+ km)
Ceiling: 27000 feet AGL
Clouds: few clouds at 1400 feet AGL
few clouds at 1600 feet AGL
scattered clouds at 14000 feet AGL
broken clouds at 27000 feet AGL
Weather: no significant weather observed at this time

METAR text: WBKK 231900Z 13003KT 080V170 9999 FEW014 FEW016CB SCT140 BKN270 26/24 Q1010 NOSIG
Conditions at: WBKK (KOTA KINABALU IN, MY) observed 1900 UTC 23 June 2019
Temperature: 26.0°C (79°F)
Dewpoint: 24.0°C (75°F) [RH = 89%]
Pressure (altimeter): 29.82 inches Hg (1010.0 mb)
Winds: from the SE (130 degrees) at 3 MPH (3 knots; 1.5 m/s)
Visibility: 6 or more miles (10+ km)
Ceiling: 27000 feet AGL
Clouds: few clouds at 1400 feet AGL
few clouds at 1600 feet AGL
scattered clouds at 14000 feet AGL
broken clouds at 27000 feet AGL
Weather: no significant weather observed at this time

METAR text: WBKK 231830Z 22009KT 9999 FEW014 FEW016CB SCT140 BKN270 27/22 Q1010 NOSIG
Conditions at: WBKK (KOTA KINABALU IN, MY) observed 1830 UTC 23 June 2019
Temperature: 27.0°C (81°F)
Dewpoint: 22.0°C (72°F) [RH = 74%]
Pressure (altimeter): 29.82 inches Hg (1010.0 mb)
Winds: from the SW (220 degrees) at 10 MPH (9 knots; 4.6 m/s)
Visibility: 6 or more miles (10+ km)
Ceiling: 27000 feet AGL
Clouds: few clouds at 1400 feet AGL
few clouds at 1600 feet AGL
scattered clouds at 14000 feet AGL
broken clouds at 27000 feet AGL
Weather: no significant weather observed at this time

METAR text: WBKK 231800Z VRB02KT 9999 FEW014 FEW016CB SCT140 BKN270 26/24 Q1010 NOSIG
Conditions at: WBKK (KOTA KINABALU IN, MY) observed 1800 UTC 23 June 2019
Temperature: 26.0°C (79°F)
Dewpoint: 24.0°C (75°F) [RH = 89%]
Pressure (altimeter): 29.82 inches Hg (1010.0 mb)
Winds: variable direction winds at 2 MPH (2 knots; 1.0 m/s)
Visibility: 6 or more miles (10+ km)
Ceiling: 27000 feet AGL
Clouds: few clouds at 1400 feet AGL
few clouds at 1600 feet AGL
scattered clouds at 14000 feet AGL
broken clouds at 27000 feet AGL
Weather: no significant weather observed at this time

METAR text: WBKK 231730Z 11003KT 9999 FEW014 FEW016CB SCT140 BKN270 25/24 Q1010 NOSIG
Conditions at: WBKK (KOTA KINABALU IN, MY) observed 1730 UTC 23 June 2019
Temperature: 25.0°C (77°F)
Dewpoint: 24.0°C (75°F) [RH = 94%]
Pressure (altimeter): 29.82 inches Hg (1010.0 mb)
Winds: from the ESE (110 degrees) at 3 MPH (3 knots; 1.5 m/s)
Visibility: 6 or more miles (10+ km)
Ceiling: 27000 feet AGL
Clouds: few clouds at 1400 feet AGL
few clouds at 1600 feet AGL
scattered clouds at 14000 feet AGL
broken clouds at 27000 feet AGL
Weather: no significant weather observed at this time

METAR text: WBKK 231700Z 11003KT 9999 FEW014 FEW016CB SCT140 BKN270 25/24 Q1010 NOSIG
Conditions at: WBKK (KOTA KINABALU IN, MY) observed 1700 UTC 23 June 2019
Temperature: 25.0°C (77°F)
Dewpoint: 24.0°C (75°F) [RH = 94%]
Pressure (altimeter): 29.82 inches Hg (1010.0 mb)
Winds: from the ESE (110 degrees) at 3 MPH (3 knots; 1.5 m/s)
Visibility: 6 or more miles (10+ km)
Ceiling: 27000 feet AGL
Clouds: few clouds at 1400 feet AGL
few clouds at 1600 feet AGL
scattered clouds at 14000 feet AGL
broken clouds at 27000 feet AGL
Weather: no significant weather observed at this time

METAR text: WBKK 231630Z 12003KT 070V140 9999 FEW014 SCT140 BKN260 25/24 Q1010 NOSIG
Conditions at: WBKK (KOTA KINABALU IN, MY) observed 1630 UTC 23 June 2019
Temperature: 25.0°C (77°F)
Dewpoint: 24.0°C (75°F) [RH = 94%]
Pressure (altimeter): 29.82 inches Hg (1010.0 mb)
Winds: from the ESE (120 degrees) at 3 MPH (3 knots; 1.5 m/s)
Visibility: 6 or more miles (10+ km)
Ceiling: 26000 feet AGL
Clouds: few clouds at 1400 feet AGL
scattered clouds at 14000 feet AGL
broken clouds at 26000 feet AGL
Weather: no significant weather observed at this time

METAR text: WBKK 231600Z 14004KT 9999 FEW014 SCT140 BKN260 25/23 Q1011 NOSIG
Conditions at: WBKK (KOTA KINABALU IN, MY) observed 1600 UTC 23 June 2019
Temperature: 25.0°C (77°F)
Dewpoint: 23.0°C (73°F) [RH = 89%]
Pressure (altimeter): 29.85 inches Hg (1011.0 mb)
Winds: from the SE (140 degrees) at 5 MPH (4 knots; 2.1 m/s)
Visibility: 6 or more miles (10+ km)
Ceiling: 26000 feet AGL
Clouds: few clouds at 1400 feet AGL
scattered clouds at 14000 feet AGL
broken clouds at 26000 feet AGL
Weather: no significant weather observed at this time

METAR text: WBKK 231530Z 16006KT 140V200 9999 -RA FEW014 SCT140 BKN260 25/23 Q1011 NOSIG
Conditions at: WBKK (KOTA KINABALU IN, MY) observed 1530 UTC 23 June 2019
Temperature: 25.0°C (77°F)
Dewpoint: 23.0°C (73°F) [RH = 89%]
Pressure (altimeter): 29.85 inches Hg (1011.0 mb)
Winds: from the SSE (160 degrees) at 7 MPH (6 knots; 3.1 m/s)
Visibility: 6 or more miles (10+ km)
Ceiling: 26000 feet AGL
Clouds: few clouds at 1400 feet AGL
scattered clouds at 14000 feet AGL
broken clouds at 26000 feet AGL
Weather: -RA  (light rain)

METAR text: WBKK 231500Z 18012KT 9999 -RA FEW014 FEW016CB SCT140 BKN260 25/23 Q1011 TEMPO 20015KT 5000 TSRA
Conditions at: WBKK (KOTA KINABALU IN, MY) observed 1500 UTC 23 June 2019
Temperature: 25.0°C (77°F)
Dewpoint: 23.0°C (73°F) [RH = 89%]
Pressure (altimeter): 29.85 inches Hg (1011.0 mb)
Winds: from the S (180 degrees) at 14 MPH (12 knots; 6.2 m/s)
Visibility: 6 or more miles (10+ km)
Ceiling: 26000 feet AGL
Clouds: few clouds at 1400 feet AGL
few clouds at 1600 feet AGL
scattered clouds at 14000 feet AGL
broken clouds at 26000 feet AGL
Weather: -RA  (light rain)

METAR text: WBKK 231430Z 20016KT 170V230 9999 FEW014 FEW016CB SCT140 BKN270 26/23 Q1011 TEMPO 21020KT 3000 +TSRA
Conditions at: WBKK (KOTA KINABALU IN, MY) observed 1430 UTC 23 June 2019
Temperature: 26.0°C (79°F)
Dewpoint: 23.0°C (73°F) [RH = 84%]
Pressure (altimeter): 29.85 inches Hg (1011.0 mb)
Winds: from the SSW (200 degrees) at 18 MPH (16 knots; 8.2 m/s)
Visibility: 6 or more miles (10+ km)
Ceiling: 27000 feet AGL
Clouds: few clouds at 1400 feet AGL
few clouds at 1600 feet AGL
scattered clouds at 14000 feet AGL
broken clouds at 27000 feet AGL
Weather: no significant weather observed at this time

METAR text: WBKK 231400Z 11003KT 9999 FEW014 FEW016CB SCT140 BKN270 26/25 Q1010 TEMPO 7000 -TSRA
Conditions at: WBKK (KOTA KINABALU IN, MY) observed 1400 UTC 23 June 2019
Temperature: 26.0°C (79°F)
Dewpoint: 25.0°C (77°F) [RH = 94%]
Pressure (altimeter): 29.82 inches Hg (1010.0 mb)
Winds: from the ESE (110 degrees) at 3 MPH (3 knots; 1.5 m/s)
Visibility: 6 or more miles (10+ km)
Ceiling: 27000 feet AGL
Clouds: few clouds at 1400 feet AGL
few clouds at 1600 feet AGL
scattered clouds at 14000 feet AGL
broken clouds at 27000 feet AGL
Weather: no significant weather observed at this time

METAR text: WBKK 231330Z 12004KT 090V150 9999 FEW014 FEW016CB SCT140 BKN270 26/25 Q1010 NOSIG
Conditions at: WBKK (KOTA KINABALU IN, MY) observed 1330 UTC 23 June 2019
Temperature: 26.0°C (79°F)
Dewpoint: 25.0°C (77°F) [RH = 94%]
Pressure (altimeter): 29.82 inches Hg (1010.0 mb)
Winds: from the ESE (120 degrees) at 5 MPH (4 knots; 2.1 m/s)
Visibility: 6 or more miles (10+ km)
Ceiling: 27000 feet AGL
Clouds: few clouds at 1400 feet AGL
few clouds at 1600 feet AGL
scattered clouds at 14000 feet AGL
broken clouds at 27000 feet AGL
Weather: no significant weather observed at this time

METAR text: WBKK 231300Z 10005KT 9999 FEW014 FEW016CB SCT140 BKN270 26/25 Q1009 NOSIG
Conditions at: WBKK (KOTA KINABALU IN, MY) observed 1300 UTC 23 June 2019
Temperature: 26.0°C (79°F)
Dewpoint: 25.0°C (77°F) [RH = 94%]
Pressure (altimeter): 29.79 inches Hg (1009.0 mb)
Winds: from the E (100 degrees) at 6 MPH (5 knots; 2.6 m/s)
Visibility: 6 or more miles (10+ km)
Ceiling: 27000 feet AGL
Clouds: few clouds at 1400 feet AGL
few clouds at 1600 feet AGL
scattered clouds at 14000 feet AGL
broken clouds at 27000 feet AGL
Weather: no significant weather observed at this time

METAR text: WBKK 231230Z 10005KT 070V130 9999 FEW014 SCT140 BKN270 26/25 Q1009 NOSIG
Conditions at: WBKK (KOTA KINABALU IN, MY) observed 1230 UTC 23 June 2019
Temperature: 26.0°C (79°F)
Dewpoint: 25.0°C (77°F) [RH = 94%]
Pressure (altimeter): 29.79 inches Hg (1009.0 mb)
Winds: from the E (100 degrees) at 6 MPH (5 knots; 2.6 m/s)
Visibility: 6 or more miles (10+ km)
Ceiling: 27000 feet AGL
Clouds: few clouds at 1400 feet AGL
scattered clouds at 14000 feet AGL
broken clouds at 27000 feet AGL
Weather: no significant weather observed at this time

METAR text: WBKK 231200Z 10005KT 070V140 9999 -RA FEW014 SCT140 BKN270 26/25 Q1009 NOSIG
Conditions at: WBKK (KOTA KINABALU IN, MY) observed 1200 UTC 23 June 2019
Temperature: 26.0°C (79°F)
Dewpoint: 25.0°C (77°F) [RH = 94%]
Pressure (altimeter): 29.79 inches Hg (1009.0 mb)
Winds: from the E (100 degrees) at 6 MPH (5 knots; 2.6 m/s)
Visibility: 6 or more miles (10+ km)
Ceiling: 27000 feet AGL
Clouds: few clouds at 1400 feet AGL
scattered clouds at 14000 feet AGL
broken clouds at 27000 feet AGL
Weather: -RA  (light rain)

METAR text: WBKK 231130Z 11003KT 070V140 9999 -RA FEW014 SCT140 BKN270 26/25 Q1008 NOSIG
Conditions at: WBKK (KOTA KINABALU IN, MY) observed 1130 UTC 23 June 2019
Temperature: 26.0°C (79°F)
Dewpoint: 25.0°C (77°F) [RH = 94%]
Pressure (altimeter): 29.76 inches Hg (1008.0 mb)
Winds: from the ESE (110 degrees) at 3 MPH (3 knots; 1.5 m/s)
Visibility: 6 or more miles (10+ km)
Ceiling: 27000 feet AGL
Clouds: few clouds at 1400 feet AGL
scattered clouds at 14000 feet AGL
broken clouds at 27000 feet AGL
Weather: -RA  (light rain)

METAR text: WBKK 231100Z 03003KT 330V080 4500 RA FEW014 SCT140 OVC260 25/25 Q1008 BECMG 5000 -RA
Conditions at: WBKK (KOTA KINABALU IN, MY) observed 1100 UTC 23 June 2019
Temperature: 25.0°C (77°F)
Dewpoint: 25.0°C (77°F) [RH = 100%]
Pressure (altimeter): 29.76 inches Hg (1008.0 mb)
Winds: from the NNE (30 degrees) at 3 MPH (3 knots; 1.5 m/s)
Visibility: 2.80 miles (4.51 km)
Ceiling: 26000 feet AGL
Clouds: few clouds at 1400 feet AGL
scattered clouds at 14000 feet AGL
overcast cloud deck at 26000 feet AGL
Weather: RA  (moderate rain)

METAR text: WBKK 231030Z VRB02KT 3500 +RA FEW014 SCT140 OVC260 26/24 Q1008 BECMG 5000 -RA
Conditions at: WBKK (KOTA KINABALU IN, MY) observed 1030 UTC 23 June 2019
Temperature: 26.0°C (79°F)
Dewpoint: 24.0°C (75°F) [RH = 89%]
Pressure (altimeter): 29.76 inches Hg (1008.0 mb)
Winds: variable direction winds at 2 MPH (2 knots; 1.0 m/s)
Visibility: 2.17 miles (3.49 km)
Ceiling: 26000 feet AGL
Clouds: few clouds at 1400 feet AGL
scattered clouds at 14000 feet AGL
overcast cloud deck at 26000 feet AGL
Weather: +RA  (heavy rain)

METAR text: WBKK 231000Z VRB02KT 9999 -RA FEW014 SCT140 BKN260 28/26 Q1008 NOSIG
Conditions at: WBKK (KOTA KINABALU IN, MY) observed 1000 UTC 23 June 2019
Temperature: 28.0°C (82°F)
Dewpoint: 26.0°C (79°F) [RH = 89%]
Pressure (altimeter): 29.76 inches Hg (1008.0 mb)
Winds: variable direction winds at 2 MPH (2 knots; 1.0 m/s)
Visibility: 6 or more miles (10+ km)
Ceiling: 26000 feet AGL
Clouds: few clouds at 1400 feet AGL
scattered clouds at 14000 feet AGL
broken clouds at 26000 feet AGL
Weather: -RA  (light rain)

METAR text: WBKK 230930Z VRB02KT 9999 FEW014 SCT140 BKN270 29/26 Q1007 NOSIG
Conditions at: WBKK (KOTA KINABALU IN, MY) observed 0930 UTC 23 June 2019
Temperature: 29.0°C (84°F)
Dewpoint: 26.0°C (79°F) [RH = 84%]
Pressure (altimeter): 29.73 inches Hg (1007.0 mb)
Winds: variable direction winds at 2 MPH (2 knots; 1.0 m/s)
Visibility: 6 or more miles (10+ km)
Ceiling: 27000 feet AGL
Clouds: few clouds at 1400 feet AGL
scattered clouds at 14000 feet AGL
broken clouds at 27000 feet AGL
Weather: no significant weather observed at this time

METAR text: WBKK 230900Z VRB02KT 9999 -RA FEW014 SCT140 BKN260 29/27 Q1007 NOSIG
Conditions at: WBKK (KOTA KINABALU IN, MY) observed 0900 UTC 23 June 2019
Temperature: 29.0°C (84°F)
Dewpoint: 27.0°C (81°F) [RH = 89%]
Pressure (altimeter): 29.73 inches Hg (1007.0 mb)
Winds: variable direction winds at 2 MPH (2 knots; 1.0 m/s)
Visibility: 6 or more miles (10+ km)
Ceiling: 26000 feet AGL
Clouds: few clouds at 1400 feet AGL
scattered clouds at 14000 feet AGL
broken clouds at 26000 feet AGL
Weather: -RA  (light rain)

METAR text: WBKK 230830Z VRB02KT 9999 -RA FEW014 SCT140 BKN260 28/27 Q1007 NOSIG
Conditions at: WBKK (KOTA KINABALU IN, MY) observed 0830 UTC 23 June 2019
Temperature: 28.0°C (82°F)
Dewpoint: 27.0°C (81°F) [RH = 94%]
Pressure (altimeter): 29.73 inches Hg (1007.0 mb)
Winds: variable direction winds at 2 MPH (2 knots; 1.0 m/s)
Visibility: 6 or more miles (10+ km)
Ceiling: 26000 feet AGL
Clouds: few clouds at 1400 feet AGL
scattered clouds at 14000 feet AGL
broken clouds at 26000 feet AGL
Weather: -RA  (light rain)

METAR text: WBKK 230800Z 00000KT 9999 -RA FEW014 SCT140 BKN260 28/27 Q1007 NOSIG
Conditions at: WBKK (KOTA KINABALU IN, MY) observed 0800 UTC 23 June 2019
Temperature: 28.0°C (82°F)
Dewpoint: 27.0°C (81°F) [RH = 94%]
Pressure (altimeter): 29.73 inches Hg (1007.0 mb)
Winds: calm
Visibility: 6 or more miles (10+ km)
Ceiling: 26000 feet AGL
Clouds: few clouds at 1400 feet AGL
scattered clouds at 14000 feet AGL
broken clouds at 26000 feet AGL
Weather: -RA  (light rain)

METAR text: WBKK 230730Z 11003KT 070V140 9999 -RA FEW014 SCT140 BKN260 28/27 Q1007 NOSIG
Conditions at: WBKK (KOTA KINABALU IN, MY) observed 0730 UTC 23 June 2019
Temperature: 28.0°C (82°F)
Dewpoint: 27.0°C (81°F) [RH = 94%]
Pressure (altimeter): 29.73 inches Hg (1007.0 mb)
Winds: from the ESE (110 degrees) at 3 MPH (3 knots; 1.5 m/s)
Visibility: 6 or more miles (10+ km)
Ceiling: 26000 feet AGL
Clouds: few clouds at 1400 feet AGL
scattered clouds at 14000 feet AGL
broken clouds at 26000 feet AGL
Weather: -RA  (light rain)

METAR text: WBKK 230700Z 12003KT 9999 -RA FEW014 SCT140 BKN260 28/26 Q1007 NOSIG
Conditions at: WBKK (KOTA KINABALU IN, MY) observed 0700 UTC 23 June 2019
Temperature: 28.0°C (82°F)
Dewpoint: 26.0°C (79°F) [RH = 89%]
Pressure (altimeter): 29.73 inches Hg (1007.0 mb)
Winds: from the ESE (120 degrees) at 3 MPH (3 knots; 1.5 m/s)
Visibility: 6 or more miles (10+ km)
Ceiling: 26000 feet AGL
Clouds: few clouds at 1400 feet AGL
scattered clouds at 14000 feet AGL
broken clouds at 26000 feet AGL
Weather: -RA  (light rain)

METAR text: WBKK 230630Z 19003KT 160V230 9999 -RA FEW014 SCT140 BKN270 28/26 Q1007 NOSIG
Conditions at: WBKK (KOTA KINABALU IN, MY) observed 0630 UTC 23 June 2019
Temperature: 28.0°C (82°F)
Dewpoint: 26.0°C (79°F) [RH = 89%]
Pressure (altimeter): 29.73 inches Hg (1007.0 mb)
Winds: from the S (190 degrees) at 3 MPH (3 knots; 1.5 m/s)
Visibility: 6 or more miles (10+ km)
Ceiling: 27000 feet AGL
Clouds: few clouds at 1400 feet AGL
scattered clouds at 14000 feet AGL
broken clouds at 27000 feet AGL
Weather: -RA  (light rain)

Forecast for: WBKK (KOTA KINABALU IN, MY)
Text: TAF WBKK 241700Z 2418/2518 11005KT 9999 FEW014
Forecast period: 1800 UTC 24 June 2019 to 0300 UTC 25 June 2019
Forecast type: FROM: standard forecast or significant change
Winds: from the ESE (110 degrees) at 6 MPH (5 knots; 2.6 m/s)
Visibility: 6 or more miles 10+ km)
Ceiling: at least 12,000 feet AGL
Clouds: few clouds at 1400 feet AGL
Weather: no significant weather forecast for this period
Text: BECMG 2503/2505 26008KT
Forecast period: 0300 to 1800 UTC 25 June 2019
Forecast type: BECOMING: Conditions expected to become as follows by 0500 UTC 25 June 2019
Winds: from the W (260 degrees) at 9 MPH (8 knots; 4.1 m/s)
Visibility: 6 or more miles 10+ km)
Ceiling: at least 12,000 feet AGL
Clouds: few clouds at 1400 feet AGL
Weather: no significant weather forecast for this period